Schneifelwetter: Wetterstation Hallschlag, 537 m . NN
Wetterdaten: Sonntag, 02.09.2012
Datum Zeit Temp. A. Feuchte A. Luftdruck Regen Wind Richtung Richtung Sonnenschein T Regen Taupunkt Windchill
02.09.2012 00:14 3,5 C 89 % 1025 hPa 0,0 l/m 0,0 km/h (0 Bft) N-NO 30 0 min 0 min 1,9 C 3,5 C
02.09.2012 00:29 3,3 C 89 % 1025 hPa 0,0 l/m 0,0 km/h (0 Bft) N-NO 30 0 min 0 min 1,7 C 3,3 C
02.09.2012 00:44 3,1 C 89 % 1024 hPa 0,0 l/m 0,0 km/h (0 Bft) N-NO 30 0 min 0 min 1,5 C 3,1 C
02.09.2012 00:59 2,9 C 90 % 1025 hPa 0,0 l/m 0,0 km/h (0 Bft) N-NO 30 0 min 0 min 1,4 C 2,9 C
02.09.2012 01:14 2,7 C 90 % 1025 hPa 0,0 l/m 0,0 km/h (0 Bft) N-NO 30 0 min 0 min 1,2 C 2,7 C
02.09.2012 01:29 2,6 C 90 % 1025 hPa 0,0 l/m 0,0 km/h (0 Bft) N-NO 30 0 min 0 min 1,1 C 2,6 C
02.09.2012 01:44 2,4 C 90 % 1024 hPa 0,0 l/m 0,0 km/h (0 Bft) N-NO 30 0 min 0 min 0,9 C 2,4 C
02.09.2012 01:59 2,4 C 90 % 1024 hPa 0,0 l/m 0,0 km/h (0 Bft) N-NO 30 0 min 0 min 0,9 C 2,4 C
02.09.2012 02:14 2,1 C 91 % 1024 hPa 0,0 l/m 0,0 km/h (0 Bft) N-NO 30 0 min 0 min 0,8 C 2,1 C
02.09.2012 02:29 1,9 C 91 % 1024 hPa 0,0 l/m 0,0 km/h (0 Bft) N-NO 30 0 min 0 min 0,6 C 1,9 C
02.09.2012 02:44 1,9 C 91 % 1024 hPa 0,0 l/m 0,0 km/h (0 Bft) N-NO 30 0 min 0 min 0,6 C 1,9 C
02.09.2012 02:59 1,7 C 92 % 1024 hPa 0,0 l/m 0,0 km/h (0 Bft) N-NO 30 0 min 0 min 0,5 C 1,7 C
02.09.2012 03:14 1,8 C 92 % 1024 hPa 0,0 l/m 0,0 km/h (0 Bft) N-NO 30 0 min 0 min 0,6 C 1,8 C
02.09.2012 03:29 1,6 C 92 % 1024 hPa 0,0 l/m 0,0 km/h (0 Bft) N-NO 30 0 min 0 min 0,4 C 1,6 C
02.09.2012 03:44 1,6 C 92 % 1024 hPa 0,0 l/m 0,0 km/h (0 Bft) N-NO 30 0 min 0 min 0,4 C 1,6 C
02.09.2012 03:59 1,6 C 92 % 1024 hPa 0,0 l/m 0,0 km/h (0 Bft) N-NO 30 0 min 0 min 0,4 C 1,6 C
02.09.2012 04:14 1,5 C 93 % 1024 hPa 0,0 l/m 0,0 km/h (0 Bft) N-NO 30 0 min 0 min 0,5 C 1,5 C
02.09.2012 04:29 1,5 C 93 % 1024 hPa 0,0 l/m 0,0 km/h (0 Bft) N-NO 30 0 min 0 min 0,5 C 1,5 C
02.09.2012 04:44 1,7 C 93 % 1024 hPa 0,0 l/m 0,0 km/h (0 Bft) N-NO 30 0 min 0 min 0,7 C 1,7 C
02.09.2012 04:59 1,5 C 93 % 1024 hPa 0,0 l/m 0,0 km/h (0 Bft) N-NO 30 0 min 0 min 0,5 C 1,5 C
02.09.2012 05:14 1,4 C 93 % 1024 hPa 0,0 l/m 0,0 km/h (0 Bft) N-NO 30 0 min 0 min 0,4 C 1,4 C
02.09.2012 05:29 1,4 C 93 % 1024 hPa 0,0 l/m 0,0 km/h (0 Bft) N-NO 30 0 min 0 min 0,4 C 1,4 C
02.09.2012 05:44 1,3 C 93 % 1024 hPa 0,0 l/m 0,0 km/h (0 Bft) N-NO 30 0 min 0 min 0,3 C 1,3 C
02.09.2012 05:59 1,5 C 93 % 1024 hPa 0,0 l/m 0,0 km/h (0 Bft) N-NO 30 0 min 0 min 0,5 C 1,5 C
02.09.2012 06:14 1,4 C 93 % 1024 hPa 0,0 l/m 0,0 km/h (0 Bft) N-NO 30 0 min 0 min 0,4 C 1,4 C
02.09.2012 06:29 1,5 C 93 % 1024 hPa 0,0 l/m 0,0 km/h (0 Bft) N-NO 30 0 min 0 min 0,5 C 1,5 C
02.09.2012 06:44 1,3 C 93 % 1024 hPa 0,0 l/m 0,0 km/h (0 Bft) N-NO 30 0 min 0 min 0,3 C 1,3 C
02.09.2012 06:59 1,2 C 93 % 1024 hPa 0,0 l/m 0,0 km/h (0 Bft) N-NO 30 0 min 0 min 0,2 C 1,2 C
02.09.2012 07:14 1,2 C 93 % 1024 hPa 0,0 l/m 0,0 km/h (0 Bft) N-NO 30 0 min 0 min 0,2 C 1,2 C
02.09.2012 07:28 1,5 C 94 % 1024 hPa 0,0 l/m 0,0 km/h (0 Bft) N-NO 30 0 min 0 min 0,6 C 1,5 C
02.09.2012 07:43 1,9 C 94 % 1024 hPa 0,0 l/m 0,0 km/h (0 Bft) N-NO 30 0 min 0 min 1,0 C 1,9 C
02.09.2012 07:58 2,7 C 94 % 1024 hPa 0,0 l/m 0,0 km/h (0 Bft) N-NO 30 0 min 0 min 1,8 C 2,7 C
02.09.2012 08:13 3,6 C 95 % 1024 hPa 0,0 l/m 0,0 km/h (0 Bft) N-NO 30 0 min 0 min 2,9 C 3,6 C
02.09.2012 08:28 4,5 C 95 % 1024 hPa 0,0 l/m 0,0 km/h (0 Bft) N-NO 30 0 min 0 min 3,8 C 4,5 C
02.09.2012 08:43 5,7 C 95 % 1024 hPa 0,0 l/m 6,0 km/h (2 Bft) NW 320 0 min 0 min 5,0 C 5,7 C
02.09.2012 08:58 6,0 C 95 % 1024 hPa 0,0 l/m 0,0 km/h (0 Bft) NW 320 0 min 0 min 5,3 C 6,0 C
02.09.2012 09:13 6,2 C 95 % 1024 hPa 0,0 l/m 0,0 km/h (0 Bft) NW 320 0 min 0 min 5,5 C 6,2 C
02.09.2012 09:28 6,7 C 95 % 1024 hPa 0,0 l/m 0,0 km/h (0 Bft) NW 320 0 min 0 min 6,0 C 6,7 C
02.09.2012 09:43 7,3 C 95 % 1024 hPa 0,0 l/m 0,0 km/h (0 Bft) NW 320 0 min 0 min 6,6 C 7,3 C
02.09.2012 09:58 7,8 C 95 % 1024 hPa 0,0 l/m 0,0 km/h (0 Bft) NW 320 0 min 0 min 7,0 C 7,8 C
02.09.2012 10:14 8,4 C 95 % 1024 hPa 0,0 l/m 0,0 km/h (0 Bft) S-SW 210 0 min 0 min 7,6 C 8,4 C
02.09.2012 10:29 9,0 C 95 % 1024 hPa 0,0 l/m 0,0 km/h (0 Bft) S-SW 210 0 min 0 min 8,2 C 9,0 C
02.09.2012 10:43 10,0 C 95 % 1024 hPa 0,0 l/m 0,0 km/h (0 Bft) S-SW 210 0 min 0 min 9,2 C 10,0 C
02.09.2012 10:59 10,6 C 94 % 1024 hPa 0,0 l/m 0,0 km/h (0 Bft) S-SW 210 0 min 0 min 9,7 C 10,6 C
02.09.2012 11:14 11,3 C 93 % 1024 hPa 0,0 l/m 0,0 km/h (0 Bft) S-SW 210 0 min 0 min 10,2 C 11,3 C
02.09.2012 11:29 12,5 C 93 % 1024 hPa 0,0 l/m 0,0 km/h (0 Bft) SO22.5 145 0 min 0 min 11,4 C 12,5 C
02.09.2012 11:44 13,6 C 89 % 1024 hPa 0,0 l/m 0,0 km/h (0 Bft) S-SO 155 0 min 0 min 11,8 C 13,6 C
02.09.2012 11:59 13,7 C 86 % 1024 hPa 0,0 l/m 0,0 km/h (0 Bft) S-SO 155 0 min 0 min 11,4 C 13,7 C
02.09.2012 12:13 14,1 C 83 % 1024 hPa 0,0 l/m 0,3 km/h (0 Bft) W-SW22.5 250 0 min 0 min 11,3 C 14,1 C
02.09.2012 12:29 15,0 C 79 % 1024 hPa 0,0 l/m 7,5 km/h (2 Bft) W-SW45 240 0 min 0 min 11,4 C 14,4 C
02.09.2012 12:44 16,0 C 74 % 1024 hPa 0,0 l/m 8,1 km/h (2 Bft) W67.5 265 0 min 0 min 11,4 C 15,1 C
02.09.2012 12:59 16,5 C 72 % 1023 hPa 0,0 l/m 8,5 km/h (2 Bft) W-SW22.5 255 0 min 0 min 11,4 C 15,4 C
02.09.2012 13:14 17,2 C 70 % 1023 hPa 0,0 l/m 11,5 km/h (2 Bft) SW45 230 0 min 0 min 11,7 C 15,0 C
02.09.2012 13:29 17,4 C 67 % 1023 hPa 0,0 l/m 10,1 km/h (2 Bft) W-SW45 255 0 min 0 min 11,2 C 15,7 C
02.09.2012 13:43 17,7 C 66 % 1023 hPa 0,0 l/m 13,5 km/h (3 Bft) W22.5 260 0 min 0 min 11,3 C 14,9 C
02.09.2012 13:59 18,0 C 61 % 1023 hPa 0,0 l/m 13,8 km/h (3 Bft) W22.5 270 0 min 0 min 10,4 C 15,2 C
02.09.2012 14:14 18,1 C 63 % 1023 hPa 0,0 l/m 12,1 km/h (2 Bft) W-SW22.5 250 0 min 0 min 10,9 C 15,8 C
02.09.2012 14:29 18,4 C 60 % 1023 hPa 0,0 l/m 17,5 km/h (3 Bft) W-SW45 245 0 min 0 min 10,5 C 14,7 C
02.09.2012 14:44 18,6 C 58 % 1023 hPa 0,0 l/m 14,4 km/h (3 Bft) W-SW 255 0 min 0 min 10,2 C 15,7 C
02.09.2012 14:59 18,5 C 58 % 1023 hPa 0,0 l/m 16,0 km/h (3 Bft) W-SW67.5 250 0 min 0 min 10,1 C 15,2 C
02.09.2012 15:13 18,6 C 57 % 1023 hPa 0,0 l/m 11,1 km/h (2 Bft) W-SW 250 0 min 0 min 9,9 C 16,7 C
02.09.2012 15:29 19,0 C 56 % 1023 hPa 0,0 l/m 10,2 km/h (2 Bft) S45 185 0 min 0 min 10,0 C 17,5 C
02.09.2012 15:44 19,2 C 53 % 1023 hPa 0,0 l/m 7,0 km/h (2 Bft) SW22.5 215 0 min 0 min 9,4 C 18,9 C
02.09.2012 15:59 19,1 C 55 % 1023 hPa 0,0 l/m 8,5 km/h (2 Bft) SW67.5 230 0 min 0 min 9,8 C 18,2 C
02.09.2012 16:14 19,2 C 53 % 1023 hPa 0,0 l/m 8,1 km/h (2 Bft) S-SW22.5 195 0 min 0 min 9,4 C 18,5 C
02.09.2012 16:29 19,6 C 54 % 1023 hPa 0,0 l/m 7,2 km/h (2 Bft) S 185 0 min 0 min 10,0 C 19,3 C
02.09.2012 16:43 19,6 C 54 % 1022 hPa 0,0 l/m 8,0 km/h (2 Bft) SW22.5 235 0 min 0 min 10,0 C 18,9 C
02.09.2012 16:59 19,7 C 54 % 1022 hPa 0,0 l/m 0,8 km/h (0 Bft) S-SW 200 0 min 0 min 10,1 C 19,7 C
02.09.2012 17:14 19,5 C 55 % 1022 hPa 0,0 l/m 4,6 km/h (1 Bft) SW 220 0 min 0 min 10,2 C 19,5 C
02.09.2012 17:29 19,5 C 55 % 1022 hPa 0,0 l/m 6,3 km/h (2 Bft) W-SW 250 0 min 0 min 10,2 C 19,5 C
02.09.2012 17:44 19,0 C 55 % 1022 hPa 0,0 l/m 8,1 km/h (2 Bft) W-NW22.5 285 0 min 0 min 9,8 C 18,3 C
02.09.2012 17:43 19,0 C 55 % 1022 hPa 0,0 l/m 8,1 km/h (2 Bft) W-NW22.5 285 0 min 0 min 9,8 C 18,3 C
02.09.2012 17:59 18,8 C 58 % 1022 hPa 0,0 l/m 0,0 km/h (0 Bft) W 275 0 min 0 min 10,4 C 18,8 C
02.09.2012 18:14 18,9 C 59 % 1022 hPa 0,0 l/m 10,5 km/h (2 Bft) W 260 0 min 0 min 10,7 C 17,3 C
02.09.2012 18:29 18,7 C 59 % 1022 hPa 0,0 l/m 6,4 km/h (2 Bft) W 260 0 min 0 min 10,5 C 18,7 C
02.09.2012 18:44 18,3 C 60 % 1022 hPa 0,0 l/m 0,0 km/h (0 Bft) W 260 0 min 0 min 10,4 C 18,3 C
02.09.2012 18:59 17,9 C 62 % 1022 hPa 0,0 l/m 0,0 km/h (0 Bft) W 260 0 min 0 min 10,5 C 17,9 C
02.09.2012 19:13 17,2 C 63 % 1022 hPa 0,0 l/m 8,9 km/h (2 Bft) W45 280 0 min 0 min 10,1 C 16,0 C
02.09.2012 19:29 16,4 C 64 % 1022 hPa 0,0 l/m 8,5 km/h (2 Bft) NW22.5 325 0 min 0 min 9,6 C 15,3 C
02.09.2012 19:44 15,6 C 65 % 1022 hPa 0,0 l/m 4,8 km/h (1 Bft) W-NW45 295 0 min 0 min 9,0 C 15,6 C
02.09.2012 19:59 15,0 C 67 % 1022 hPa 0,0 l/m 0,0 km/h (0 Bft) NW 320 0 min 0 min 8,9 C 15,0 C
02.09.2012 20:14 14,4 C 67 % 1023 hPa 0,0 l/m 0,0 km/h (0 Bft) N-NW 335 0 min 0 min 8,4 C 14,4 C
02.09.2012 20:29 13,2 C 71 % 1023 hPa 0,0 l/m 0,0 km/h (0 Bft) N-NW 335 0 min 0 min 8,1 C 13,2 C
02.09.2012 20:43 12,5 C 73 % 1023 hPa 0,0 l/m 0,0 km/h (0 Bft) N-NW 335 0 min 0 min 7,8 C 12,5 C
02.09.2012 20:59 12,0 C 75 % 1024 hPa 0,0 l/m 0,0 km/h (0 Bft) N-NW 335 0 min 0 min 7,7 C 12,0 C
02.09.2012 21:14 11,6 C 77 % 1024 hPa 0,0 l/m 0,0 km/h (0 Bft) N-NW 335 0 min 0 min 7,7 C 11,6 C
02.09.2012 21:29 11,5 C 78 % 1024 hPa 0,0 l/m 0,0 km/h (0 Bft) N-NW 335 0 min 0 min 7,8 C 11,5 C
02.09.2012 21:44 11,4 C 79 % 1024 hPa 0,0 l/m 0,0 km/h (0 Bft) N-NW 335 0 min 0 min 7,9 C 11,4 C
02.09.2012 21:59 10,9 C 79 % 1024 hPa 0,0 l/m 0,0 km/h (0 Bft) N-NW 335 0 min 0 min 7,4 C 10,9 C
02.09.2012 22:13 10,5 C 80 % 1024 hPa 0,0 l/m 0,0 km/h (0 Bft) N-NW 335 0 min 0 min 7,2 C 10,5 C
02.09.2012 22:29 10,1 C 82 % 1024 hPa 0,0 l/m 0,0 km/h (0 Bft) N-NW 335 0 min 0 min 7,2 C 10,1 C
02.09.2012 22:44 9,7 C 82 % 1024 hPa 0,0 l/m 0,0 km/h (0 Bft) N-NW 335 0 min 0 min 6,8 C 9,7 C
02.09.2012 22:59 9,3 C 84 % 1024 hPa 0,0 l/m 0,0 km/h (0 Bft) N-NW 335 0 min 0 min 6,7 C 9,3 C
02.09.2012 23:14 9,1 C 85 % 1024 hPa 0,0 l/m 0,0 km/h (0 Bft) N-NW 335 0 min 0 min 6,7 C 9,1 C
02.09.2012 23:29 9,0 C 85 % 1024 hPa 0,0 l/m 0,0 km/h (0 Bft) N-NW 335 0 min 0 min 6,6 C 9,0 C
02.09.2012 23:43 8,7 C 85 % 1024 hPa 0,0 l/m 0,0 km/h (0 Bft) N-NW 335 0 min 0 min 6,3 C 8,7 C
02.09.2012 23:59 8,6 C 86 % 1024 hPa 0,0 l/m 0,0 km/h (0 Bft) N-NW 335 0 min 0 min 6,4 C 8,6 C
_ Min-Zeit 06:59 15:44 16:43 - 00:14 - - - - 06:59 06:59
Minimum _ 1,2 C 53 % 1022 hPa - 0,0 km/h (0 Bft) - - - - 0,2 C 1,2 C
_ Max-Zeit 16:59 08:13 00:14 00:14 14:29 - - 00:14 00:14 11:44 16:59
Maximum _ 19,7 C 95 % 1025 hPa 0,0 l/m 17,5 km/h
W-SW (3 Bft)
- - 0 min 0 min 11,8 C 19,7 C
Durchschnitt _ 9,9 C 80 % 1024 hPa #0,0 l/m 2,7 km/h (1 Bft) W-SW - #0 min. #0 min. 6,2 C 9,5 C